Time;durP1;ratioP1;P1;durP2;ratioP2;P2;SDS_P1;SDS_P2;PMS_P1;PMS_P2;Temp;Humidity;BMP_temperature;BMP_pressure;BME280_temperature;BME280_humidity;BME280_pressure;Samples;Min_cycle;Max_cycle;Signal;HPM_P1;HPM_P2
2023/04/19 00:01:43;;;;;;;;;23.75;21.25;;;;;14.17;56.05;101258.75;5074730;28;45804;-86
2023/04/19 00:04:08;;;;;;;;;31.50;24.75;;;;;14.17;56.40;101264.00;5075595;28;46453;-77
2023/04/19 00:06:34;;;;;;;;;25.75;25.00;;;;;14.14;56.08;101264.22;5059666;28;47826;-80
2023/04/19 00:08:59;;;;;;;;;25.50;24.00;;;;;14.15;56.18;101262.44;5077478;28;45759;-77
2023/04/19 00:11:25;;;;;;;;;25.50;23.50;;;;;14.10;56.54;101262.78;5078575;28;45700;-74
2023/04/19 00:13:50;;;;;;;;;30.75;26.00;;;;;14.10;56.31;101259.31;5075701;28;46346;-79
2023/04/19 00:16:16;;;;;;;;;26.25;23.00;;;;;14.10;56.36;101265.41;5075875;28;45645;-79
2023/04/19 00:18:41;;;;;;;;;29.50;24.75;;;;;14.08;56.58;101258.59;5075821;28;45530;-74
2023/04/19 00:21:07;;;;;;;;;26.25;23.00;;;;;14.09;56.54;101266.38;5074255;28;45499;-77
2023/04/19 00:23:33;;;;;;;;;26.50;25.00;;;;;14.12;56.41;101268.78;5073580;28;46598;-80
2023/04/19 00:29:20;;;;;;;;;25.50;23.25;;;;;14.12;56.45;101257.41;5071335;28;45771;-79
2023/04/19 00:31:46;;;;;;;;;25.25;20.50;;;;;14.10;56.75;101265.41;5072043;28;45962;-76
2023/04/19 00:34:11;;;;;;;;;27.25;23.50;;;;;14.06;56.80;101261.34;5073129;28;46713;-80
2023/04/19 00:36:36;;;;;;;;;23.25;22.50;;;;;14.03;56.66;101252.84;5071406;28;48482;-75
2023/04/19 00:39:02;;;;;;;;;24.25;23.00;;;;;14.02;56.53;101253.78;5073245;28;45683;-76
2023/04/19 00:44:49;;;;;;;;;22.25;19.25;;;;;13.99;56.58;101259.28;5072748;28;46070;-78
2023/04/19 00:47:15;;;;;;;;;17.00;14.50;;;;;13.94;56.28;101249.09;5072840;28;45555;-79
2023/04/19 00:49:41;;;;;;;;;18.25;17.25;;;;;13.92;56.64;101264.19;5072816;28;45617;-77
2023/04/19 00:52:07;;;;;;;;;17.00;17.00;;;;;13.92;56.31;101256.28;5073984;28;45928;-76
2023/04/19 00:54:32;;;;;;;;;23.50;19.25;;;;;13.91;56.29;101261.66;5073436;28;46960;-79
2023/04/19 00:56:58;;;;;;;;;20.25;18.75;;;;;13.88;56.75;101260.06;5072776;28;46386;-80
2023/04/19 00:59:23;;;;;;;;;16.50;16.00;;;;;13.87;56.52;101258.41;5072813;28;45554;-78
2023/04/19 01:01:49;;;;;;;;;17.50;16.25;;;;;13.85;56.62;101255.88;5071274;28;45581;-78
2023/04/19 01:04:15;;;;;;;;;18.25;16.25;;;;;13.86;56.78;101256.72;5072346;28;45602;-79
2023/04/19 01:06:41;;;;;;;;;18.25;16.75;;;;;13.86;56.96;101260.22;5053862;28;47833;-76
2023/04/19 01:09:06;;;;;;;;;18.50;17.50;;;;;13.81;56.72;101254.44;5072273;28;45830;-77
2023/04/19 01:14:54;;;;;;;;;21.00;18.00;;;;;13.76;56.54;101247.84;5072127;28;45608;-77
2023/04/19 01:17:19;;;;;;;;;18.75;17.00;;;;;13.77;56.82;101252.97;5072244;28;45811;-75
2023/04/19 01:19:45;;;;;;;;;17.00;15.50;;;;;13.75;57.05;101251.41;5072528;28;45679;-75
2023/04/19 01:22:29;;;;;;;;;17.75;15.25;;;;;13.73;56.94;101251.53;5072050;28;45764;-78
2023/04/19 01:24:55;;;;;;;;;15.75;14.75;;;;;13.71;56.48;101242.88;5074004;28;45604;-77
2023/04/19 01:27:20;;;;;;;;;17.50;17.00;;;;;13.70;56.62;101243.03;5075903;28;45984;-74
2023/04/19 01:29:46;;;;;;;;;20.00;17.50;;;;;13.72;56.65;101252.47;5075854;28;45855;-75
2023/04/19 01:32:14;;;;;;;;;16.00;16.00;;;;;13.72;56.86;101249.84;5074162;28;45672;-75
2023/04/19 01:34:40;;;;;;;;;15.25;14.75;;;;;13.71;56.90;101245.53;5076769;28;45813;-77
2023/04/19 01:37:06;;;;;;;;;17.75;17.00;;;;;13.69;56.48;101244.81;5076280;28;46298;-74
2023/04/19 01:39:31;;;;;;;;;14.25;12.50;;;;;13.72;56.78;101241.09;5057942;28;45838;-79
2023/04/19 01:45:19;;;;;;;;;18.25;17.50;;;;;13.71;56.92;101237.63;5076113;28;45728;-79
2023/04/19 01:47:44;;;;;;;;;20.00;17.25;;;;;13.71;56.63;101236.81;5057751;28;47112;-81
2023/04/19 01:50:10;;;;;;;;;14.25;14.00;;;;;13.69;56.83;101239.53;5076084;28;45546;-83
2023/04/19 01:52:35;;;;;;;;;19.50;17.75;;;;;13.69;56.76;101238.69;5076102;28;45495;-79
2023/04/19 01:55:01;;;;;;;;;17.75;16.75;;;;;13.70;56.56;101235.13;5076701;28;45677;-79
2023/04/19 01:57:26;;;;;;;;;18.00;17.00;;;;;13.68;57.16;101235.22;5079536;28;45470;-76
2023/04/19 01:59:53;;;;;;;;;17.50;16.00;;;;;13.67;57.08;101246.72;5067322;28;45673;-79
2023/04/19 02:02:18;;;;;;;;;15.00;13.50;;;;;13.67;56.62;101235.31;5088460;28;45713;-74
2023/04/19 02:04:44;;;;;;;;;17.25;16.50;;;;;13.62;56.97;101233.03;5084068;28;45547;-81
2023/04/19 02:07:10;;;;;;;;;17.75;15.00;;;;;13.56;57.05;101232.66;5076573;28;45716;-83
2023/04/19 02:09:36;;;;;;;;;22.25;18.00;;;;;13.57;57.05;101229.91;5079687;28;45569;-80
2023/04/19 02:15:24;;;;;;;;;17.50;15.00;;;;;13.55;57.21;101234.44;5076356;28;45975;-81
2023/04/19 02:17:49;;;;;;;;;16.75;14.25;;;;;13.52;57.39;101229.41;5075947;28;46128;-82
2023/04/19 02:20:15;;;;;;;;;17.25;15.50;;;;;13.51;57.42;101233.00;5075753;28;45553;-82
2023/04/19 02:22:40;;;;;;;;;17.75;15.75;;;;;13.51;56.99;101229.50;5075265;28;45611;-80
2023/04/19 02:25:06;;;;;;;;;22.00;17.75;;;;;13.51;57.35;101237.41;5075515;28;46722;-82
2023/04/19 02:30:53;;;;;;;;;17.50;15.75;;;;;13.42;57.32;101234.50;5072634;27;45680;-82
2023/04/19 02:33:18;;;;;;;;;14.50;14.00;;;;;13.42;57.11;101228.41;5075064;28;45786;-82
2023/04/19 02:35:43;;;;;;;;;19.25;17.00;;;;;13.36;56.89;101221.78;5072556;28;46813;-81
2023/04/19 02:38:09;;;;;;;;;17.75;17.25;;;;;13.34;57.57;101223.69;5075750;28;45939;-78
2023/04/19 02:40:34;;;;;;;;;16.75;16.75;;;;;13.28;57.16;101224.13;5076189;28;45516;-81
2023/04/19 02:42:59;;;;;;;;;18.00;15.00;;;;;13.27;57.07;101227.75;5059532;28;45557;-82
2023/04/19 02:45:25;;;;;;;;;17.25;15.50;;;;;13.27;57.49;101235.63;5078633;28;45890;-81
2023/04/19 02:47:50;;;;;;;;;20.00;15.75;;;;;13.24;57.68;101235.00;5078840;28;45751;-81
2023/04/19 02:50:16;;;;;;;;;17.00;16.00;;;;;13.17;57.44;101224.06;5076714;28;45879;-77
2023/04/19 02:52:41;;;;;;;;;17.50;16.00;;;;;13.20;57.55;101233.53;5077616;28;45707;-80
2023/04/19 02:55:07;;;;;;;;;16.25;15.75;;;;;13.20;57.63;101237.00;5077494;28;46635;-76
2023/04/19 03:00:54;;;;;;;;;14.25;14.00;;;;;13.12;58.05;101231.44;5076285;28;45577;-79
2023/04/19 03:03:19;;;;;;;;;17.25;15.25;;;;;13.11;58.08;101235.03;5076369;28;45475;-79
2023/04/19 03:05:45;;;;;;;;;19.50;15.00;;;;;13.10;57.69;101230.72;5075986;28;45576;-80
2023/04/19 03:08:10;;;;;;;;;16.00;15.00;;;;;13.07;57.75;101237.94;5076103;28;45715;-83
2023/04/19 03:10:36;;;;;;;;;19.00;16.00;;;;;13.03;58.18;101238.19;5074595;28;45761;-77
2023/04/19 03:16:23;;;;;;;;;19.50;18.00;;;;;12.96;58.21;101229.03;5074025;28;46017;-83
2023/04/19 03:18:49;;;;;;;;;19.50;18.25;;;;;12.93;58.15;101226.63;5074379;28;45789;-81
2023/04/19 03:21:17;;;;;;;;;18.00;16.00;;;;;12.90;58.47;101244.44;5074380;28;45532;-79
2023/04/19 03:23:42;;;;;;;;;14.75;14.75;;;;;12.87;58.15;101232.34;5074343;28;45656;-79
2023/04/19 03:26:08;;;;;;;;;17.50;16.00;;;;;12.84;58.21;101229.94;5074480;28;45768;-82
2023/04/19 03:28:33;;;;;;;;;15.25;15.00;;;;;12.84;58.43;101223.84;5074207;28;46034;-80
2023/04/19 03:30:59;;;;;;;;;17.00;15.75;;;;;12.84;58.38;101227.31;5072662;28;45689;-83
2023/04/19 03:33:25;;;;;;;;;17.25;16.25;;;;;12.83;58.73;101225.63;5074367;28;45723;-78
2023/04/19 03:35:50;;;;;;;;;26.25;19.50;;;;;12.83;58.68;101235.28;5074486;28;45549;-81
2023/04/19 03:38:15;;;;;;;;;17.50;16.25;;;;;12.83;58.34;101228.25;5075283;28;45729;-78
2023/04/19 03:40:41;;;;;;;;;15.75;14.75;;;;;12.83;58.62;101230.88;5074951;28;46168;-77
2023/04/19 03:46:30;;;;;;;;;16.50;14.25;;;;;12.84;58.47;101224.69;5074150;28;45621;-82
2023/04/19 03:48:56;;;;;;;;;17.50;15.00;;;;;12.82;58.53;101226.56;5055062;28;48149;-78
2023/04/19 03:51:21;;;;;;;;;17.25;15.25;;;;;12.80;58.62;101217.94;5073741;28;45622;-79
2023/04/19 03:53:47;;;;;;;;;19.75;16.50;;;;;12.80;58.65;101231.06;5073950;28;45878;-82
2023/04/19 03:56:12;;;;;;;;;15.75;14.25;;;;;12.74;58.59;101217.53;5074047;28;45756;-79
2023/04/19 03:58:38;;;;;;;;;15.00;13.50;;;;;12.78;58.85;101232.16;5055732;28;46195;-79
2023/04/19 04:01:04;;;;;;;;;20.25;18.50;;;;;12.74;59.22;101228.06;5073392;28;45518;-79
2023/04/19 04:03:29;;;;;;;;;21.75;17.25;;;;;12.73;59.01;101224.59;5073600;28;45825;-77
2023/04/19 04:05:55;;;;;;;;;20.25;19.00;;;;;12.73;58.85;101215.84;5073588;28;45490;-78
2023/04/19 04:08:20;;;;;;;;;17.75;15.75;;;;;12.72;58.90;101216.78;5073235;28;45713;-74
2023/04/19 04:10:45;;;;;;;;;20.25;17.25;;;;;12.72;59.16;101219.44;5073380;28;45669;-74
2023/04/19 04:16:32;;;;;;;;;15.75;14.75;;;;;12.65;59.22;101218.16;5073867;28;45608;-77
2023/04/19 04:18:58;;;;;;;;;20.25;17.25;;;;;12.63;59.12;101223.56;5074654;28;45841;-80
2023/04/19 04:21:25;;;;;;;;;19.50;17.75;;;;;12.61;59.21;101221.03;5073517;28;45903;-75
2023/04/19 04:23:52;;;;;;;;;16.75;15.75;;;;;12.58;59.55;101223.84;5071939;28;45813;-76
2023/04/19 04:26:19;;;;;;;;;18.50;16.00;;;;;12.58;59.23;101226.47;5073446;28;45609;-75
2023/04/19 04:32:07;;;;;;;;;18.50;18.25;;;;;12.55;59.37;101210.94;5070468;27;45818;-79
2023/04/19 04:34:34;;;;;;;;;20.75;18.25;;;;;12.51;59.46;101221.78;5073360;28;45870;-78
2023/04/19 04:37:00;;;;;;;;;20.25;18.75;;;;;12.50;59.56;101231.44;5073271;28;46316;-84
2023/04/19 04:39:25;;;;;;;;;21.00;20.50;;;;;12.48;59.80;101221.97;5073203;28;46194;-82
2023/04/19 04:41:52;;;;;;;;;20.75;18.75;;;;;12.48;59.51;101222.81;5072818;28;46215;-83
2023/04/19 04:44:19;;;;;;;;;17.75;16.50;;;;;12.48;59.79;101230.69;5073465;28;45692;-81
2023/04/19 04:46:44;;;;;;;;;22.50;19.00;;;;;12.47;59.79;101228.19;5071550;28;47812;-79
2023/04/19 04:49:10;;;;;;;;;24.75;22.00;;;;;12.44;59.92;101228.38;5073921;28;45572;-75
2023/04/19 04:51:36;;;;;;;;;19.00;16.00;;;;;12.44;59.86;101231.00;5072253;28;45755;-82
2023/04/19 04:54:01;;;;;;;;;21.00;17.75;;;;;12.44;59.80;101241.53;5074236;28;45649;-83
2023/04/19 04:56:27;;;;;;;;;24.00;20.00;;;;;12.40;60.09;101232.19;5074563;28;45739;-75
2023/04/19 05:02:14;;;;;;;;;19.50;17.25;;;;;12.38;60.02;101226.19;5073419;28;45613;-77
2023/04/19 05:04:40;;;;;;;;;16.75;15.00;;;;;12.43;60.10;101232.78;5074100;28;45575;-81
2023/04/19 05:07:05;;;;;;;;;19.50;17.50;;;;;12.41;59.75;101232.09;5072464;28;47310;-83
2023/04/19 05:09:30;;;;;;;;;25.50;20.75;;;;;12.38;60.02;101232.28;5074054;28;45844;-79
2023/04/19 05:11:56;;;;;;;;;25.00;21.50;;;;;12.38;60.00;101240.16;5074083;28;45835;-76
2023/04/19 05:17:43;;;;;;;;;27.00;22.50;;;;;12.31;60.22;101240.69;5073386;28;45524;-81
2023/04/19 05:20:09;;;;;;;;;21.50;18.75;;;;;12.33;60.12;101246.66;5073547;28;45545;-76
2023/04/19 05:22:35;;;;;;;;;20.50;19.25;;;;;12.29;60.55;101242.56;5075493;28;45816;-78
2023/04/19 05:25:01;;;;;;;;;22.75;21.00;;;;;12.27;60.34;101247.94;5073564;28;45628;-79
2023/04/19 05:27:26;;;;;;;;;23.25;22.25;;;;;12.27;60.16;101241.81;5073382;28;45680;-76
2023/04/19 05:29:52;;;;;;;;;20.75;18.75;;;;;12.31;60.30;101251.22;5073368;28;45582;-78
2023/04/19 05:32:18;;;;;;;;;24.75;21.00;;;;;12.35;60.43;101240.38;5073143;28;45699;-75
2023/04/19 05:34:43;;;;;;;;;23.50;20.75;;;;;12.36;60.29;101241.22;5073415;28;45812;-77
2023/04/19 05:37:08;;;;;;;;;26.25;22.50;;;;;12.37;60.47;101248.97;5073396;28;46552;-78
2023/04/19 05:39:34;;;;;;;;;24.00;20.00;;;;;12.40;60.45;101255.81;5073769;28;45610;-77
2023/04/19 05:42:00;;;;;;;;;23.25;21.25;;;;;12.39;60.41;101252.34;5073520;28;45608;-76
2023/04/19 05:47:47;;;;;;;;;24.50;22.75;;;;;12.41;60.38;101261.00;5071876;28;46135;-80
2023/04/19 05:50:16;;;;;;;;;25.00;22.25;;;;;12.43;60.48;101260.88;5073327;28;45634;-74
2023/04/19 05:52:42;;;;;;;;;28.50;25.00;;;;;12.41;60.19;101261.00;5073196;28;45917;-75
2023/04/19 05:55:07;;;;;;;;;20.25;18.75;;;;;12.45;60.43;101262.44;5072975;28;45779;-73
2023/04/19 05:57:33;;;;;;;;;21.75;21.00;;;;;12.41;60.17;101255.72;5073048;28;45518;-77
2023/04/19 06:03:20;;;;;;;;;22.50;18.25;;;;;12.46;60.14;101266.78;5073077;28;45622;-76
2023/04/19 06:05:45;;;;;;;;;20.00;18.75;;;;;12.46;60.19;101264.13;5073553;28;45713;-75
2023/04/19 06:08:11;;;;;;;;;32.75;28.50;;;;;12.47;60.17;101268.44;5073242;28;46329;-77
2023/04/19 06:10:36;;;;;;;;;30.25;24.50;;;;;12.47;60.39;101273.69;5071398;28;46979;-76
2023/04/19 06:13:02;;;;;;;;;23.25;20.25;;;;;12.53;60.13;101280.31;5076488;28;45521;-76
2023/04/19 06:15:29;;;;;;;;;20.00;19.00;;;;;12.55;60.18;101278.44;5076876;28;45838;-75
2023/04/19 06:17:55;;;;;;;;;22.00;20.25;;;;;12.54;60.45;101268.84;5076200;28;45608;-77
2023/04/19 06:20:20;;;;;;;;;23.75;19.00;;;;;12.60;60.50;101276.31;5077078;28;45957;-82
2023/04/19 06:22:48;;;;;;;;;26.00;21.75;;;;;12.56;60.49;101280.97;5077262;28;45618;-79
2023/04/19 06:25:13;;;;;;;;;27.75;21.00;;;;;12.57;60.50;101272.13;5076557;28;45677;-80
2023/04/19 06:27:39;;;;;;;;;15.00;14.50;;;;;12.63;60.30;101279.56;5076977;28;45556;-79
2023/04/19 06:33:26;;;;;;;;;25.75;23.25;;;;;12.64;60.16;101285.66;5074046;27;45841;-81
2023/04/19 06:35:52;;;;;;;;;22.00;19.00;;;;;12.66;60.62;101296.94;5076396;28;45588;-81
2023/04/19 06:38:17;;;;;;;;;42.25;34.75;;;;;12.67;60.21;101282.84;5076166;28;45577;-80
2023/04/19 06:40:43;;;;;;;;;32.25;27.25;;;;;12.69;60.33;101286.19;5076321;28;46680;-78
2023/04/19 06:43:08;;;;;;;;;23.75;21.00;;;;;12.72;60.06;101293.03;5076133;28;45893;-82
2023/04/19 06:48:55;;;;;;;;;23.00;20.00;;;;;12.73;60.10;101287.69;5075900;28;46015;-79
2023/04/19 06:51:20;;;;;;;;;24.00;21.25;;;;;12.72;59.97;101283.38;5075737;28;45613;-79
2023/04/19 06:53:46;;;;;;;;;25.50;20.50;;;;;12.77;59.94;101288.31;5076357;28;46054;-78
2023/04/19 06:56:12;;;;;;;;;23.25;15.00;;;;;12.77;60.23;101297.03;5076515;28;45623;-81
2023/04/19 06:58:37;;;;;;;;;25.25;22.50;;;;;12.80;59.90;101301.22;5076480;28;46572;-83
2023/04/19 07:01:03;;;;;;;;;31.25;24.00;;;;;12.78;59.86;101290.84;5077460;28;45608;-81
2023/04/19 07:03:29;;;;;;;;;22.25;20.75;;;;;12.85;59.87;101302.59;5075457;28;45805;-80
2023/04/19 07:05:57;;;;;;;;;27.75;23.00;;;;;12.87;60.16;101291.97;5076354;28;45661;-81
2023/04/19 07:08:23;;;;;;;;;22.50;20.25;;;;;12.88;59.89;101291.03;5074493;28;47443;-80
2023/04/19 07:10:49;;;;;;;;;24.00;22.50;;;;;12.91;59.77;101294.28;5078577;28;46247;-79
2023/04/19 07:13:14;;;;;;;;;26.75;21.75;;;;;12.93;59.72;101292.41;5093973;27;46051;-79
2023/04/19 07:19:04;;;;;;;;;23.50;22.25;;;;;12.91;59.80;101293.44;5075519;28;45634;-79
2023/04/19 07:21:32;;;;;;;;;29.50;25.50;;;;;12.91;59.85;101289.00;5075006;28;46255;-77
2023/04/19 07:23:58;;;;;;;;;24.25;21.50;;;;;12.90;59.88;101297.03;5075296;28;45777;-81
2023/04/19 07:26:23;;;;;;;;;26.25;21.75;;;;;12.96;60.18;101292.16;5075551;28;45538;-81
2023/04/19 07:28:49;;;;;;;;;23.50;21.50;;;;;12.94;59.97;101299.34;5075318;28;46400;-80
2023/04/19 07:31:16;;;;;;;;;25.00;24.50;;;;;13.02;59.81;101304.91;5073140;28;48161;-82
2023/04/19 07:33:42;;;;;;;;;30.25;25.00;;;;;13.04;59.95;101302.16;5075121;28;45507;-80
2023/04/19 07:36:08;;;;;;;;;23.50;21.75;;;;;13.09;60.14;101304.47;5075468;28;45606;-79
2023/04/19 07:38:33;;;;;;;;;24.00;20.50;;;;;13.11;59.88;101303.44;5075158;28;46525;-83
2023/04/19 07:40:59;;;;;;;;;24.00;22.25;;;;;13.16;59.99;101305.75;5075286;28;45656;-79
2023/04/19 07:43:25;;;;;;;;;23.50;18.25;;;;;13.23;60.01;101302.56;5075555;28;45550;-81
2023/04/19 07:49:12;;;;;;;;;24.25;21.00;;;;;13.32;59.65;101307.19;5076116;28;45624;-79
2023/04/19 07:51:38;;;;;;;;;27.50;23.75;;;;;13.38;59.46;101314.66;5076324;28;46375;-79
2023/04/19 07:54:03;;;;;;;;;29.50;25.25;;;;;13.46;59.54;101308.81;5075676;28;45538;-80
2023/04/19 07:56:29;;;;;;;;;27.75;23.75;;;;;13.50;59.22;101304.16;5076006;28;45719;-79
2023/04/19 07:58:54;;;;;;;;;29.00;24.50;;;;;13.52;59.13;101307.53;5074850;28;45924;-81
2023/04/19 08:04:41;;;;;;;;;25.75;25.00;;;;;13.58;59.30;101304.47;5074551;28;45575;-81
2023/04/19 08:07:08;;;;;;;;;25.25;23.25;;;;;13.59;59.00;101298.25;5057837;28;45929;-80
2023/04/19 08:09:33;;;;;;;;;27.75;23.50;;;;;13.64;58.95;101304.03;5075074;28;46262;-79
2023/04/19 08:12:00;;;;;;;;;23.00;22.00;;;;;13.67;59.03;101302.00;5074683;28;45871;-80
2023/04/19 08:14:25;;;;;;;;;27.00;23.25;;;;;13.72;59.19;101310.41;5073454;28;45988;-77
2023/04/19 08:16:51;;;;;;;;;29.00;26.50;;;;;13.76;59.20;101306.63;5075530;28;45591;-78
2023/04/19 08:19:16;;;;;;;;;27.75;23.75;;;;;13.81;58.89;101301.00;5078013;28;45594;-79
2023/04/19 08:21:41;;;;;;;;;29.00;24.00;;;;;13.83;58.82;101305.19;5081096;28;46228;-78
2023/04/19 08:24:07;;;;;;;;;24.25;21.00;;;;;13.87;58.96;101295.28;5080377;28;45785;-77
2023/04/19 08:26:33;;;;;;;;;26.50;23.50;;;;;13.93;58.64;101300.09;5081096;28;45726;-79
2023/04/19 08:28:58;;;;;;;;;29.75;25.00;;;;;13.97;58.66;101293.66;5077886;28;46555;-80
2023/04/19 08:34:45;;;;;;;;;26.75;23.25;;;;;14.04;58.84;101286.13;5070994;27;45716;-80
2023/04/19 08:37:10;;;;;;;;;19.50;16.00;;;;;14.13;58.79;101299.47;5074853;28;45688;-80
2023/04/19 08:39:36;;;;;;;;;27.50;23.50;;;;;14.17;58.43;101294.78;5074218;28;46291;-81
2023/04/19 08:42:06;;;;;;;;;23.75;22.75;;;;;14.23;58.34;101283.78;5073827;28;46173;-77
2023/04/19 08:44:32;;;;;;;;;26.25;21.00;;;;;14.25;58.08;101295.88;5074057;28;45869;-79
2023/04/19 08:47:00;;;;;;;;;25.50;21.00;;;;;14.27;58.18;101290.50;5074261;28;45505;-81
2023/04/19 08:49:27;;;;;;;;;20.75;19.50;;;;;14.36;58.52;101289.00;5073926;28;45528;-79
2023/04/19 08:51:54;;;;;;;;;23.00;21.00;;;;;14.42;58.28;101292.00;5073515;28;46367;-79
2023/04/19 08:54:21;;;;;;;;;24.25;21.50;;;;;14.46;57.67;101290.00;5074153;28;45632;-79
2023/04/19 08:56:46;;;;;;;;;25.75;24.25;;;;;14.45;57.94;101290.94;5074097;28;45501;-78
2023/04/19 08:59:12;;;;;;;;;26.75;25.00;;;;;14.47;57.32;101296.94;5073970;28;45670;-78
2023/04/19 09:04:59;;;;;;;;;21.25;19.25;;;;;14.53;57.88;101299.09;5073855;28;45800;-80
2023/04/19 09:07:26;;;;;;;;;26.00;23.25;;;;;14.54;57.83;101290.22;5074012;28;45671;-79
2023/04/19 09:10:06;;;;;;;;;24.50;21.25;;;;;14.61;57.51;101292.28;5074010;28;46644;-81
2023/04/19 09:12:33;;;;;;;;;25.50;22.75;;;;;14.68;57.56;101296.13;5073603;28;46125;-81
2023/04/19 09:14:59;;;;;;;;;22.50;21.00;;;;;14.73;57.58;101295.78;5073753;28;45820;-77
2023/04/19 09:17:25;;;;;;;;;24.50;23.00;;;;;14.79;57.28;101294.47;5074059;28;45577;-77
2023/04/19 09:19:50;;;;;;;;;25.25;20.75;;;;;14.82;56.97;101294.22;5073876;28;46172;-77
2023/04/19 09:22:16;;;;;;;;;24.50;20.50;;;;;14.88;57.10;101296.38;5073338;28;46183;-77
2023/04/19 09:24:41;;;;;;;;;23.50;20.50;;;;;14.91;57.09;101286.44;5073745;28;45666;-77
2023/04/19 09:27:09;;;;;;;;;19.00;18.25;;;;;14.96;56.91;101288.69;5073760;28;45512;-75
2023/04/19 09:29:35;;;;;;;;;28.50;24.75;;;;;15.03;57.05;101284.63;5073310;28;46639;-80
2023/04/19 09:35:38;;;;;;;;;23.75;21.00;;;;;15.18;56.66;101285.19;5072385;28;45907;-78
2023/04/19 09:38:04;;;;;;;;;25.50;22.00;;;;;15.23;56.45;101277.75;5073636;28;45615;-80
2023/04/19 09:40:29;;;;;;;;;22.50;21.75;;;;;15.27;56.23;101274.78;5071594;28;48269;-79
2023/04/19 09:42:55;;;;;;;;;21.75;20.75;;;;;15.31;56.04;101275.34;5071596;28;47247;-79
2023/04/19 09:45:21;;;;;;;;;24.00;21.50;;;;;15.35;56.13;101277.63;5074290;28;45554;-80
2023/04/19 09:48:00;;;;;;;;;25.00;21.75;;;;;15.37;56.34;101270.44;5077515;28;45531;-80
2023/04/19 09:50:25;;;;;;;;;23.75;20.00;;;;;15.42;56.30;101272.69;5077206;28;45572;-78
2023/04/19 09:52:51;;;;;;;;;25.00;21.00;;;;;15.46;56.33;101268.84;5076610;28;46109;-77
2023/04/19 09:55:18;;;;;;;;;22.75;21.50;;;;;15.50;56.08;101257.91;5076976;28;45589;-79
2023/04/19 09:57:43;;;;;;;;;23.00;20.50;;;;;15.57;55.89;101257.44;5077091;28;45670;-81
2023/04/19 10:00:13;;;;;;;;;24.00;22.25;;;;;15.63;56.01;101252.50;5076942;28;45599;-79
2023/04/19 10:06:01;;;;;;;;;21.00;20.00;;;;;15.79;55.41;101255.56;5076720;28;45780;-79
2023/04/19 10:08:28;;;;;;;;;23.00;22.00;;;;;15.82;54.87;101249.16;5077033;28;45606;-81
2023/04/19 10:10:55;;;;;;;;;25.25;21.25;;;;;15.85;55.02;101248.94;5076457;28;45992;-79
2023/04/19 10:13:22;;;;;;;;;24.50;19.75;;;;;15.87;55.01;101250.47;5076513;28;46451;-78
2023/04/19 10:15:48;;;;;;;;;21.50;19.00;;;;;15.88;55.08;101238.94;5076629;28;45766;-79
2023/04/19 10:18:14;;;;;;;;;18.00;16.00;;;;;15.97;54.81;101239.97;5076763;28;45482;-80
2023/04/19 10:20:52;;;;;;;;;21.00;19.25;;;;;16.02;54.55;101244.88;5075320;28;47412;-80
2023/04/19 10:23:19;;;;;;;;;18.75;18.00;;;;;16.06;54.73;101236.56;5076591;28;45998;-79
2023/04/19 10:25:48;;;;;;;;;18.00;16.50;;;;;16.13;54.63;101243.03;5078008;28;45587;-80
2023/04/19 10:28:17;;;;;;;;;18.75;17.00;;;;;16.14;54.38;101230.63;5076578;28;45763;-79
2023/04/19 10:31:02;;;;;;;;;19.50;19.50;;;;;16.18;54.14;101235.53;5078680;28;45643;-77
2023/04/19 10:33:30;;;;;;;;;22.75;18.75;;;;;16.18;54.07;101235.53;5076941;28;45515;-80
2023/04/19 10:35:57;;;;;;;;;24.00;20.00;;;;;16.23;54.32;101233.34;5076739;28;45651;-77
2023/04/19 10:38:40;;;;;;;;;19.75;18.50;;;;;16.24;54.04;101232.38;5058682;28;45931;-81
2023/04/19 10:41:10;;;;;;;;;21.75;18.00;;;;;16.25;53.86;101230.53;5076232;28;46405;-79
2023/04/19 10:43:38;;;;;;;;;23.00;20.00;;;;;16.27;53.81;101231.25;5076071;28;46117;-81
2023/04/19 10:46:34;;;;;;;;;24.75;20.50;;;;;16.30;53.32;101233.66;5076224;28;45518;-81
2023/04/19 10:49:01;;;;;;;;;25.00;20.75;;;;;16.32;53.92;101226.41;5072904;28;45557;-82
2023/04/19 10:51:31;;;;;;;;;21.25;18.00;;;;;16.36;54.04;101233.13;5076390;28;46627;-81
2023/04/19 10:53:58;;;;;;;;;19.00;17.25;;;;;16.40;53.96;101225.78;5077120;28;46099;-81
2023/04/19 10:56:35;;;;;;;;;21.50;18.00;;;;;16.49;53.15;101219.69;5076444;28;45512;-82
2023/04/19 11:01:43;;;;;;;;;17.75;17.00;;;;;16.63;53.46;101217.53;5075370;28;45979;-81
2023/04/19 11:04:18;;;;;;;;;21.50;18.50;;;;;16.70;53.01;101212.56;5091353;27;47113;-82
2023/04/19 11:06:52;;;;;;;;;17.50;16.00;;;;;16.72;52.72;101208.84;5075308;28;45703;-84
2023/04/19 11:09:23;;;;;;;;;17.25;16.50;;;;;16.75;52.71;101213.84;5079482;28;45725;-82
2023/04/19 11:11:48;;;;;;;;;21.00;19.00;;;;;16.79;52.92;101203.81;5076900;28;45650;-81
2023/04/19 11:14:15;;;;;;;;;23.25;20.00;;;;;16.83;52.69;101209.69;5075577;28;45647;-83
2023/04/19 11:16:41;;;;;;;;;20.25;17.50;;;;;16.88;52.92;101197.72;5075721;28;45520;-81
2023/04/19 11:19:06;;;;;;;;;20.25;17.75;;;;;16.93;52.56;101187.56;5075484;28;45741;-81
2023/04/19 11:21:32;;;;;;;;;16.00;15.00;;;;;16.95;51.98;101190.09;5075241;28;45639;-77
2023/04/19 11:24:08;;;;;;;;;17.00;14.00;;;;;16.96;52.17;101192.59;5075111;28;45591;-77
2023/04/19 11:26:33;;;;;;;;;17.00;15.50;;;;;16.97;51.63;101178.38;5075341;28;45765;-79
2023/04/19 11:28:59;;;;;;;;;15.50;14.50;;;;;17.05;52.17;101178.56;5075372;28;45522;-80
2023/04/19 11:31:25;;;;;;;;;18.25;16.00;;;;;17.12;51.77;101190.25;5074606;28;46504;-79
2023/04/19 11:33:50;;;;;;;;;19.00;17.75;;;;;17.15;51.61;101170.63;5075068;28;45633;-78
2023/04/19 11:36:16;;;;;;;;;18.50;17.00;;;;;17.22;51.04;101174.38;5075039;28;45740;-81
2023/04/19 11:38:46;;;;;;;;;17.00;16.50;;;;;17.30;51.26;101171.88;5075201;28;45605;-81
2023/04/19 11:41:12;;;;;;;;;15.75;14.25;;;;;17.38;51.53;101179.16;5074923;28;46345;-83
2023/04/19 11:43:37;;;;;;;;;17.75;16.75;;;;;17.47;51.12;101175.66;5075187;28;46145;-81
2023/04/19 11:46:10;;;;;;;;;17.00;16.00;;;;;17.52;50.74;101158.38;5074826;28;45515;-79
2023/04/19 11:51:58;;;;;;;;;17.00;15.00;;;;;17.63;50.26;101161.88;5074395;28;45730;-80
2023/04/19 11:54:25;;;;;;;;;13.75;12.25;;;;;17.69;50.11;101163.97;5074738;28;46080;-79
2023/04/19 11:56:58;;;;;;;;;13.75;12.75;;;;;17.71;49.51;101148.75;5074852;28;45650;-77
2023/04/19 11:59:24;;;;;;;;;17.75;13.75;;;;;17.70;49.47;101150.56;5074790;28;45650;-81
2023/04/19 12:01:49;;;;;;;;;17.00;16.25;;;;;17.75;49.97;101160.75;5074559;28;45842;-81
2023/04/19 12:04:15;;;;;;;;;14.50;13.75;;;;;17.75;49.56;101152.81;5074521;28;45663;-81
2023/04/19 12:06:40;;;;;;;;;13.50;13.50;;;;;17.77;49.52;101145.53;5074685;28;45717;-81
2023/04/19 12:09:10;;;;;;;;;12.25;11.25;;;;;17.83;48.86;101145.78;5074792;28;45796;-83
2023/04/19 12:11:48;;;;;;;;;14.75;13.25;;;;;17.83;47.95;101137.84;5074609;28;45594;-82
2023/04/19 12:14:15;;;;;;;;;12.00;11.75;;;;;17.82;48.32;101146.78;5074389;28;46245;-79
2023/04/19 12:16:41;;;;;;;;;12.25;10.50;;;;;17.82;48.16;101138.81;5074604;28;45533;-82
2023/04/19 12:19:16;;;;;;;;;13.25;10.75;;;;;17.87;48.09;101143.69;5075038;28;45646;-78
2023/04/19 12:21:42;;;;;;;;;14.25;11.25;;;;;17.86;48.04;101134.09;5074564;28;45615;-80
2023/04/19 12:24:07;;;;;;;;;10.50;9.75;;;;;17.90;47.43;101133.66;5074662;28;46105;-78
2023/04/19 12:26:33;;;;;;;;;11.25;11.00;;;;;17.90;47.17;101131.00;5074631;28;45675;-83
2023/04/19 12:29:00;;;;;;;;;12.00;10.00;;;;;17.93;47.32;101132.50;5074597;28;45456;-82
2023/04/19 12:31:26;;;;;;;;;11.50;11.00;;;;;17.97;47.58;101147.19;5074156;28;45615;-82
2023/04/19 12:37:13;;;;;;;;;9.25;8.75;;;;;18.04;46.98;101137.66;5071915;27;45847;-82